Time;durP1;ratioP1;P1;durP2;ratioP2;P2;SDS_P1;SDS_P2;PMS_P1;PMS_P2;Temp;Humidity;BMP_temperature;BMP_pressure;BME280_temperature;BME280_humidity;BME280_pressure;Samples;Min_cycle;Max_cycle;Signal;HPM_P1;HPM_P2
2022/05/24 00:01:42;;;;;;;;;;;;;;;;;;5050916;28;1230;-71
2022/05/24 00:04:09;;;;;;;;;;;;;;;;;;5051658;28;1087;-70
2022/05/24 00:06:35;;;;;;;;;;;;;;;;;;5051780;28;1227;-71
2022/05/24 00:09:01;;;;;;;;;;;;;;;;;;5051937;28;1003;-71
2022/05/24 00:11:27;;;;;;;;;;;;;;;;;;5051771;28;1135;-71
2022/05/24 00:13:54;;;;;;;;;;;;;;;;;;5050455;28;1443;-72
2022/05/24 00:16:21;;;;;;;;;;;;;;;;;;5051529;28;1976;-72
2022/05/24 00:18:48;;;;;;;;;;;;;;;;;;5051788;28;1067;-71
2022/05/24 00:21:17;;;;;;;;;;;;;;;;;;5051543;28;787;-71
2022/05/24 00:23:43;;;;;;;;;;;;;;;;;;5049970;28;1181;-71
2022/05/24 00:26:10;;;;;;;;;;;;;;;;;;5051075;28;1304;-69
2022/05/24 00:28:36;;;;;;;;;;;;;;;;;;5051387;28;1020;-71
2022/05/24 00:31:03;;;;;;;;;;;;;;;;;;5051649;28;1072;-71
2022/05/24 00:33:31;;;;;;;;;;;;;;;;;;5051324;28;945;-71
2022/05/24 00:35:58;;;;;;;;;;;;;;;;;;5051430;28;1306;-72
2022/05/24 00:38:25;;;;;;;;;;;;;;;;;;5049494;28;2425;-71
2022/05/24 00:40:56;;;;;;;;;;;;;;;;;;5051424;28;841;-71
2022/05/24 00:43:25;;;;;;;;;;;;;;;;;;5051106;28;1055;-71
2022/05/24 00:45:53;;;;;;;;;;;;;;;;;;5051074;28;1393;-72
2022/05/24 00:48:20;;;;;;;;;;;;;;;;;;5050881;28;1112;-72
2022/05/24 00:50:47;;;;;;;;;;;;;;;;;;5051127;28;917;-70
2022/05/24 00:53:16;;;;;;;;;;;;;;;;;;5049798;28;1434;-70
2022/05/24 00:55:43;;;;;;;;;;;;;;;;;;5051090;28;1319;-71
2022/05/24 00:58:12;;;;;;;;;;;;;;;;;;5050572;28;1977;-70
2022/05/24 01:00:38;;;;;;;;;;;;;;;;;;5051181;28;889;-72
2022/05/24 01:03:05;;;;;;;;;;;;;;;;;;5049999;28;1288;-72
2022/05/24 01:05:32;;;;;;;;;;;;;;;;;;5050736;28;1302;-71
2022/05/24 01:07:58;;;;;;;;;;;;;;;;;;5049586;28;1272;-71
2022/05/24 01:10:26;;;;;;;;;;;;;;;;;;5050933;28;1087;-72
2022/05/24 01:12:53;;;;;;;;;;;;;;;;;;5050757;28;1059;-72
2022/05/24 01:15:20;;;;;;;;;;;;;;;;;;5050567;28;1384;-71
2022/05/24 01:17:46;;;;;;;;;;;;;;;;;;5050566;28;1914;-71
2022/05/24 01:20:13;;;;;;;;;;;;;;;;;;5050610;28;987;-72
2022/05/24 01:22:42;;;;;;;;;;;;;;;;;;5050765;28;1127;-70
2022/05/24 01:25:09;;;;;;;;;;;;;;;;;;5050825;28;1309;-72
2022/05/24 01:27:36;;;;;;;;;;;;;;;;;;5050546;28;1126;-72
2022/05/24 01:30:03;;;;;;;;;;;;;;;;;;5050535;28;992;-72
2022/05/24 01:38:03;;;;;;;;;;;;;;;;;;5053588;28;1918;-72
2022/05/24 01:40:29;;;;;;;;;;;;;;;;;;5054718;28;725;-72
2022/05/24 01:42:57;;;;;;;;;;;;;;;;;;5054926;28;873;-71
2022/05/24 01:45:24;;;;;;;;;;;;;;;;;;5054309;28;1290;-72
2022/05/24 01:47:51;;;;;;;;;;;;;;;;;;5054155;28;1064;-70
2022/05/24 01:50:18;;;;;;;;;;;;;;;;;;5052867;28;1215;-70
2022/05/24 01:52:44;;;;;;;;;;;;;;;;;;5054567;28;1076;-71
2022/05/24 01:55:23;;;;;;;;;;;;;;;;;;5054320;28;1417;-70
2022/05/24 01:57:51;;;;;;;;;;;;;;;;;;5053750;28;1920;-71
2022/05/24 02:00:18;;;;;;;;;;;;;;;;;;5052911;28;1363;-71
2022/05/24 02:02:45;;;;;;;;;;;;;;;;;;5054477;28;957;-69
2022/05/24 02:05:12;;;;;;;;;;;;;;;;;;5054210;28;1270;-71
2022/05/24 02:07:39;;;;;;;;;;;;;;;;;;5054399;28;1126;-72
2022/05/24 02:10:06;;;;;;;;;;;;;;;;;;5053166;28;1116;-71
2022/05/24 02:12:34;;;;;;;;;;;;;;;;;;5054161;28;961;-70
2022/05/24 02:15:01;;;;;;;;;;;;;;;;;;5053803;28;1314;-71
2022/05/24 02:17:31;;;;;;;;;;;;;;;;;;5053543;28;1914;-72
2022/05/24 02:19:58;;;;;;;;;;;;;;;;;;5052627;28;1621;-72
2022/05/24 02:22:25;;;;;;;;;;;;;;;;;;5053630;28;1143;-70
2022/05/24 02:24:54;;;;;;;;;;;;;;;;;;5053794;28;1395;-72
2022/05/24 02:27:20;;;;;;;;;;;;;;;;;;5052856;28;1075;-71
2022/05/24 02:29:47;;;;;;;;;;;;;;;;;;5051389;28;1186;-70
2022/05/24 02:32:13;;;;;;;;;;;;;;;;;;5053725;28;1079;-71
2022/05/24 02:34:40;;;;;;;;;;;;;;;;;;5053504;28;1443;-70
2022/05/24 02:37:07;;;;;;;;;;;;;;;;;;5053180;28;1981;-70
2022/05/24 02:41:28;;;;;;;;;;;;;;;;;;5053309;28;1198;-71
2022/05/24 02:42:19;;;;;;;;;;;;;;;;;;5053198;28;1007;-70
2022/05/24 02:44:45;;;;;;;;;;;;;;;;;;5053343;28;1379;-71
2022/05/24 02:47:11;;;;;;;;;;;;;;;;;;5052649;28;797;-70
2022/05/24 02:49:41;;;;;;;;;;;;;;;;;;5053165;28;786;-70
2022/05/24 02:52:07;;;;;;;;;;;;;;;;;;5053802;28;1122;-70
2022/05/24 02:54:33;;;;;;;;;;;;;;;;;;5053445;28;1343;-71
2022/05/24 02:57:01;;;;;;;;;;;;;;;;;;5051582;28;1997;-69
2022/05/24 02:59:27;;;;;;;;;;;;;;;;;;5052922;28;1079;-70
2022/05/24 03:01:53;;;;;;;;;;;;;;;;;;5053255;28;1051;-71
2022/05/24 03:04:19;;;;;;;;;;;;;;;;;;5052988;28;1306;-70
2022/05/24 03:09:36;;;;;;;;;;;;;;;;;;5067856;28;1075;-71
2022/05/24 03:14:46;;;;;;;;;;;;;;;;;;5052661;28;1344;-70
2022/05/24 03:17:13;;;;;;;;;;;;;;;;;;5052375;28;1914;-71
2022/05/24 03:19:39;;;;;;;;;;;;;;;;;;5052989;28;1253;-71
2022/05/24 03:22:08;;;;;;;;;;;;;;;;;;5051649;28;1183;-70
2022/05/24 03:24:34;;;;;;;;;;;;;;;;;;5052754;28;1334;-70
2022/05/24 03:27:00;;;;;;;;;;;;;;;;;;5052581;28;1110;-70
2022/05/24 03:29:26;;;;;;;;;;;;;;;;;;5052638;28;1075;-70
2022/05/24 03:31:53;;;;;;;;;;;;;;;;;;5052635;28;1119;-71
2022/05/24 03:34:20;;;;;;;;;;;;;;;;;;5052550;28;1392;-70
2022/05/24 03:36:46;;;;;;;;;;;;;;;;;;5052206;28;838;-72
2022/05/24 03:39:13;;;;;;;;;;;;;;;;;;5052574;28;1969;-70
2022/05/24 03:41:43;;;;;;;;;;;;;;;;;;5052595;28;786;-71
2022/05/24 03:44:10;;;;;;;;;;;;;;;;;;5050020;28;2271;-71
2022/05/24 03:46:37;;;;;;;;;;;;;;;;;;5051926;28;1308;-71
2022/05/24 03:49:04;;;;;;;;;;;;;;;;;;5051089;28;1141;-71
2022/05/24 03:51:30;;;;;;;;;;;;;;;;;;5052291;28;822;-71
2022/05/24 03:53:56;;;;;;;;;;;;;;;;;;5052039;28;1075;-72
2022/05/24 03:56:27;;;;;;;;;;;;;;;;;;5051847;28;1329;-71
2022/05/24 03:58:54;;;;;;;;;;;;;;;;;;5047042;28;1925;-70
2022/05/24 04:01:20;;;;;;;;;;;;;;;;;;5051805;28;1130;-71
2022/05/24 04:03:47;;;;;;;;;;;;;;;;;;5051638;28;1440;-71
2022/05/24 04:06:14;;;;;;;;;;;;;;;;;;5051739;28;1306;-71
2022/05/24 04:08:41;;;;;;;;;;;;;;;;;;5051682;28;1071;-71
2022/05/24 04:11:08;;;;;;;;;;;;;;;;;;5051989;28;928;-72
2022/05/24 04:13:37;;;;;;;;;;;;;;;;;;5051665;28;1008;-71
2022/05/24 04:16:03;;;;;;;;;;;;;;;;;;5051783;28;1404;-71
2022/05/24 04:18:29;;;;;;;;;;;;;;;;;;5050062;28;1977;-71
2022/05/24 04:20:56;;;;;;;;;;;;;;;;;;5051793;28;897;-71
2022/05/24 04:23:23;;;;;;;;;;;;;;;;;;5051546;28;1118;-71
2022/05/24 04:25:50;;;;;;;;;;;;;;;;;;5051530;28;1254;-71
2022/05/24 04:28:18;;;;;;;;;;;;;;;;;;5051246;28;1063;-71
2022/05/24 04:30:46;;;;;;;;;;;;;;;;;;5050118;28;1345;-71
2022/05/24 04:33:13;;;;;;;;;;;;;;;;;;5051409;28;1123;-71
2022/05/24 04:35:39;;;;;;;;;;;;;;;;;;5051534;28;1387;-69
2022/05/24 04:38:05;;;;;;;;;;;;;;;;;;5051246;28;1973;-72
2022/05/24 04:43:15;;;;;;;;;;;;;;;;;;5049783;28;993;-72
2022/05/24 04:45:41;;;;;;;;;;;;;;;;;;5051243;28;1416;-72
2022/05/24 04:48:09;;;;;;;;;;;;;;;;;;5050946;28;1442;-72
2022/05/24 04:50:37;;;;;;;;;;;;;;;;;;5051107;28;821;-72
2022/05/24 04:53:04;;;;;;;;;;;;;;;;;;5051086;28;1410;-71
2022/05/24 04:55:30;;;;;;;;;;;;;;;;;;5049624;28;1393;-71
2022/05/24 04:57:56;;;;;;;;;;;;;;;;;;5050877;28;1969;-72
2022/05/24 05:00:23;;;;;;;;;;;;;;;;;;5051053;28;1119;-72
2022/05/24 05:02:49;;;;;;;;;;;;;;;;;;5050971;28;940;-72
2022/05/24 05:05:17;;;;;;;;;;;;;;;;;;5051003;28;1302;-71
2022/05/24 05:07:43;;;;;;;;;;;;;;;;;;5050764;28;1084;-72
2022/05/24 05:10:10;;;;;;;;;;;;;;;;;;5050535;28;1087;-72
2022/05/24 05:12:36;;;;;;;;;;;;;;;;;;5050961;28;1075;-72
2022/05/24 05:15:03;;;;;;;;;;;;;;;;;;5049382;28;1383;-72
2022/05/24 05:17:29;;;;;;;;;;;;;;;;;;5040695;28;1456;-71
2022/05/24 05:19:56;;;;;;;;;;;;;;;;;;5030804;28;1982;-72
2022/05/24 05:22:24;;;;;;;;;;;;;;;;;;5030684;28;1125;-72
2022/05/24 05:24:51;;;;;;;;;;;;;;;;;;5030891;28;1321;-72
2022/05/24 05:27:17;;;;;;;;;;;;;;;;;;5030490;28;894;-72
2022/05/24 05:32:30;;;;;;;;;;;;;;;;;;5029450;28;985;-72
2022/05/24 05:34:56;;;;;;;;;;;;;;;;;;5029219;28;1415;-72
2022/05/24 05:37:23;;;;;;;;;;;;;;;;;;5030342;28;1088;-72
2022/05/24 05:39:53;;;;;;;;;;;;;;;;;;5029162;28;1969;-71
2022/05/24 05:42:20;;;;;;;;;;;;;;;;;;5029328;28;1049;-72
2022/05/24 05:44:48;;;;;;;;;;;;;;;;;;5029162;28;1405;-70
2022/05/24 05:47:14;;;;;;;;;;;;;;;;;;5030550;28;1095;-72
2022/05/24 05:49:41;;;;;;;;;;;;;;;;;;5030553;28;787;-72
2022/05/24 05:52:07;;;;;;;;;;;;;;;;;;5030686;28;896;-72
2022/05/24 05:54:33;;;;;;;;;;;;;;;;;;5030289;28;1322;-71
2022/05/24 05:57:01;;;;;;;;;;;;;;;;;;5030344;28;921;-72
2022/05/24 05:59:27;;;;;;;;;;;;;;;;;;5029951;28;1926;-70
2022/05/24 06:01:56;;;;;;;;;;;;;;;;;;5030481;28;1063;-69
2022/05/24 06:04:22;;;;;;;;;;;;;;;;;;5030593;28;1330;-71
2022/05/24 06:06:48;;;;;;;;;;;;;;;;;;5028977;28;1099;-72
2022/05/24 06:09:14;;;;;;;;;;;;;;;;;;5030545;28;1084;-72
2022/05/24 06:11:41;;;;;;;;;;;;;;;;;;5039585;28;1476;-72
2022/05/24 06:14:09;;;;;;;;;;;;;;;;;;5049803;28;1223;-72
2022/05/24 06:16:35;;;;;;;;;;;;;;;;;;5050971;28;1337;-73
2022/05/24 06:19:02;;;;;;;;;;;;;;;;;;5051806;28;1894;-73
2022/05/24 06:21:28;;;;;;;;;;;;;;;;;;5050398;28;951;-70
2022/05/24 06:23:54;;;;;;;;;;;;;;;;;;5052109;28;1166;-72
2022/05/24 06:26:21;;;;;;;;;;;;;;;;;;5053826;28;1418;-73
2022/05/24 06:28:47;;;;;;;;;;;;;;;;;;5053945;28;1067;-73
2022/05/24 06:31:15;;;;;;;;;;;;;;;;;;5053975;28;1123;-72
2022/05/24 06:33:41;;;;;;;;;;;;;;;;;;5053440;28;1091;-73
2022/05/24 06:36:07;;;;;;;;;;;;;;;;;;5053345;28;1284;-71
2022/05/24 06:38:34;;;;;;;;;;;;;;;;;;5052176;28;1977;-72
2022/05/24 06:41:00;;;;;;;;;;;;;;;;;;5053559;28;1169;-72
2022/05/24 06:43:26;;;;;;;;;;;;;;;;;;5052051;28;1166;-72
2022/05/24 06:45:53;;;;;;;;;;;;;;;;;;5053589;28;1418;-72
2022/05/24 06:48:21;;;;;;;;;;;;;;;;;;5053137;28;825;-72
2022/05/24 06:50:48;;;;;;;;;;;;;;;;;;5052280;28;1146;-72
2022/05/24 06:53:14;;;;;;;;;;;;;;;;;;5051898;28;1139;-72
2022/05/24 06:55:40;;;;;;;;;;;;;;;;;;5053163;28;1353;-71
2022/05/24 06:58:07;;;;;;;;;;;;;;;;;;5053024;28;936;-72
2022/05/24 07:03:19;;;;;;;;;;;;;;;;;;5053101;28;984;-72
2022/05/24 07:05:46;;;;;;;;;;;;;;;;;;5053093;28;1292;-72
2022/05/24 07:08:17;;;;;;;;;;;;;;;;;;5052862;28;853;-71
2022/05/24 07:10:43;;;;;;;;;;;;;;;;;;5052742;28;1067;-72
2022/05/24 07:13:10;;;;;;;;;;;;;;;;;;5052958;28;1130;-73
2022/05/24 07:15:37;;;;;;;;;;;;;;;;;;5051459;28;1398;-72
2022/05/24 07:18:03;;;;;;;;;;;;;;;;;;5051406;28;1377;-73
2022/05/24 07:20:29;;;;;;;;;;;;;;;;;;5052868;28;1918;-73
2022/05/24 07:23:03;;;;;;;;;;;;;;;;;;5052768;28;1071;-72
2022/05/24 07:25:29;;;;;;;;;;;;;;;;;;5052369;28;1438;-71
2022/05/24 07:27:55;;;;;;;;;;;;;;;;;;5052353;28;1130;-72
2022/05/24 07:30:22;;;;;;;;;;;;;;;;;;5051396;28;1043;-72
2022/05/24 07:32:48;;;;;;;;;;;;;;;;;;5051414;28;1288;-72
2022/05/24 07:35:14;;;;;;;;;;;;;;;;;;5052651;28;1310;-72
2022/05/24 07:37:40;;;;;;;;;;;;;;;;;;5052236;28;1011;-72
2022/05/24 07:45:51;;;;;;;;;;;;;;;;;;5052192;28;1416;-72
2022/05/24 07:48:18;;;;;;;;;;;;;;;;;;5051943;28;1119;-73
2022/05/24 07:50:44;;;;;;;;;;;;;;;;;;5050904;28;1295;-72
2022/05/24 07:53:11;;;;;;;;;;;;;;;;;;5052318;28;711;-72
2022/05/24 07:55:38;;;;;;;;;;;;;;;;;;5051999;28;1424;-73
2022/05/24 07:58:04;;;;;;;;;;;;;;;;;;5051934;28;861;-72
2022/05/24 08:00:31;;;;;;;;;;;;;;;;;;5051660;28;1975;-71
2022/05/24 08:02:57;;;;;;;;;;;;;;;;;;5051943;28;1064;-71
2022/05/24 08:05:23;;;;;;;;;;;;;;;;;;5052093;28;1317;-72
2022/05/24 08:07:50;;;;;;;;;;;;;;;;;;5051839;28;886;-73
2022/05/24 08:10:17;;;;;;;;;;;;;;;;;;5051872;28;1067;-72
2022/05/24 08:12:44;;;;;;;;;;;;;;;;;;5051796;28;783;-72
2022/05/24 08:15:11;;;;;;;;;;;;;;;;;;5051616;28;1326;-72
2022/05/24 08:17:37;;;;;;;;;;;;;;;;;;5060477;23;3634;-72
2022/05/24 08:20:04;;;;;;;;;;;;;;;;;;5051252;28;1918;-72
2022/05/24 08:22:30;;;;;;;;;;;;;;;;;;5051280;28;1499;-72
2022/05/24 08:24:56;;;;;;;;;;;;;;;;;;5051620;28;1005;-70
2022/05/24 08:27:22;;;;;;;;;;;;;;;;;;5051164;28;1413;-72
2022/05/24 08:29:50;;;;;;;;;;;;;;;;;;5051463;28;889;-73
2022/05/24 08:32:17;;;;;;;;;;;;;;;;;;5051409;28;831;-72
2022/05/24 08:34:43;;;;;;;;;;;;;;;;;;5051693;28;1095;-72
2022/05/24 08:37:09;;;;;;;;;;;;;;;;;;5050833;28;1413;-72
2022/05/24 08:39:36;;;;;;;;;;;;;;;;;;5051189;28;1973;-73
2022/05/24 08:42:04;;;;;;;;;;;;;;;;;;5051454;28;1067;-72
2022/05/24 08:50:01;;;;;;;;;;;;;;;;;;5051370;28;1487;-72
2022/05/24 08:52:29;;;;;;;;;;;;;;;;;;5052360;28;1067;-72
2022/05/24 08:54:56;;;;;;;;;;;;;;;;;;5051476;28;1185;-73
2022/05/24 08:57:24;;;;;;;;;;;;;;;;;;5050733;28;1422;-73
2022/05/24 08:59:52;;;;;;;;;;;;;;;;;;5051036;28;1903;-73
2022/05/24 09:02:19;;;;;;;;;;;;;;;;;;5049717;28;1103;-74
2022/05/24 09:04:46;;;;;;;;;;;;;;;;;;5051010;28;944;-73
2022/05/24 09:07:15;;;;;;;;;;;;;;;;;;5050681;28;1290;-74
2022/05/24 09:09:47;;;;;;;;;;;;;;;;;;5050985;28;1079;-74
2022/05/24 09:12:27;;;;;;;;;;;;;;;;;;5050577;28;1130;-75
2022/05/24 09:14:56;;;;;;;;;;;;;;;;;;5050478;28;1060;-73
2022/05/24 09:17:28;;;;;;;;;;;;;;;;;;5050282;28;1311;-74
2022/05/24 09:19:54;;;;;;;;;;;;;;;;;;5050787;28;1922;-74
2022/05/24 09:22:22;;;;;;;;;;;;;;;;;;5050883;28;1143;-74
2022/05/24 09:24:50;;;;;;;;;;;;;;;;;;5050899;28;1059;-74
2022/05/24 09:27:18;;;;;;;;;;;;;;;;;;5050284;28;1384;-74
2022/05/24 09:29:55;;;;;;;;;;;;;;;;;;5050781;28;782;-74
2022/05/24 09:32:22;;;;;;;;;;;;;;;;;;5050603;28;981;-74
2022/05/24 09:34:49;;;;;;;;;;;;;;;;;;5050619;28;1080;-75
2022/05/24 09:37:24;;;;;;;;;;;;;;;;;;5049875;28;1579;-73
2022/05/24 09:39:56;;;;;;;;;;;;;;;;;;5050653;28;1910;-73
2022/05/24 09:42:23;;;;;;;;;;;;;;;;;;5050424;28;922;-74
2022/05/24 09:44:51;;;;;;;;;;;;;;;;;;5050561;28;1402;-74
2022/05/24 09:47:21;;;;;;;;;;;;;;;;;;5050216;28;1406;-74
2022/05/24 09:49:47;;;;;;;;;;;;;;;;;;5050481;28;1084;-74
2022/05/24 09:52:15;;;;;;;;;;;;;;;;;;5050349;28;977;-75
2022/05/24 09:54:50;;;;;;;;;;;;;;;;;;5050477;28;977;-74
2022/05/24 09:57:19;;;;;;;;;;;;;;;;;;5050713;28;1404;-75
2022/05/24 09:59:45;;;;;;;;;;;;;;;;;;5053981;28;1921;-74
2022/05/24 10:02:29;;;;;;;;;;;;;;;;;;5054053;28;1576;-73
2022/05/24 10:04:56;;;;;;;;;;;;;;;;;;5054408;28;1084;-74
2022/05/24 10:07:24;;;;;;;;;;;;;;;;;;5053977;28;1379;-74
2022/05/24 10:09:51;;;;;;;;;;;;;;;;;;5054379;28;1091;-72
2022/05/24 10:12:22;;;;;;;;;;;;;;;;;;5053983;28;1440;-71
2022/05/24 10:14:50;;;;;;;;;;;;;;;;;;5054004;28;949;-73
2022/05/24 10:17:19;;;;;;;;;;;;;;;;;;5053518;28;1407;-72
2022/05/24 10:19:51;;;;;;;;;;;;;;;;;;5054167;28;1910;-72
2022/05/24 10:22:22;;;;;;;;;;;;;;;;;;5053875;28;1075;-72
2022/05/24 10:24:53;;;;;;;;;;;;;;;;;;5054098;28;1087;-72
2022/05/24 10:27:21;;;;;;;;;;;;;;;;;;5057136;28;1523;-73
2022/05/24 10:29:50;;;;;;;;;;;;;;;;;;5073935;28;960;-73
2022/05/24 10:40:32;;;;;;;;;;;;;;;;;;5073157;28;1985;-71
2022/05/24 10:43:02;;;;;;;;;;;;;;;;;;5072131;28;834;-73
2022/05/24 10:45:49;;;;;;;;;;;;;;;;;;5073230;28;778;-73
2022/05/24 10:48:16;;;;;;;;;;;;;;;;;;5072983;28;1103;-74
2022/05/24 10:50:43;;;;;;;;;;;;;;;;;;5073603;28;1545;-73
2022/05/24 10:53:11;;;;;;;;;;;;;;;;;;5073162;28;999;-74
2022/05/24 10:55:40;;;;;;;;;;;;;;;;;;5073461;28;885;-74
2022/05/24 10:58:09;;;;;;;;;;;;;;;;;;5071686;28;1313;-74
2022/05/24 11:00:36;;;;;;;;;;;;;;;;;;5073278;28;1918;-73
2022/05/24 11:03:04;;;;;;;;;;;;;;;;;;5073214;28;835;-74
2022/05/24 11:05:30;;;;;;;;;;;;;;;;;;5073521;28;795;-73
2022/05/24 11:07:58;;;;;;;;;;;;;;;;;;5072448;28;1522;-73
2022/05/24 11:10:25;;;;;;;;;;;;;;;;;;5072960;28;901;-73
2022/05/24 11:12:54;;;;;;;;;;;;;;;;;;5071761;28;1165;-73
2022/05/24 11:15:22;;;;;;;;;;;;;;;;;;5071594;28;1207;-74
2022/05/24 11:17:48;;;;;;;;;;;;;;;;;;5072605;28;1342;-74
2022/05/24 11:20:14;;;;;;;;;;;;;;;;;;5050267;28;2070;-74
2022/05/24 11:22:41;;;;;;;;;;;;;;;;;;5050492;28;1745;-74
2022/05/24 11:25:09;;;;;;;;;;;;;;;;;;5052867;28;1154;-74
2022/05/24 11:27:35;;;;;;;;;;;;;;;;;;5052280;28;1317;-74
2022/05/24 11:30:08;;;;;;;;;;;;;;;;;;5052704;28;680;-75
2022/05/24 11:32:35;;;;;;;;;;;;;;;;;;5052535;28;1067;-73
2022/05/24 11:35:03;;;;;;;;;;;;;;;;;;5051419;28;1240;-74
2022/05/24 11:37:30;;;;;;;;;;;;;;;;;;5052127;28;1305;-74
2022/05/24 11:39:56;;;;;;;;;;;;;;;;;;5051366;28;1977;-74
2022/05/24 11:42:24;;;;;;;;;;;;;;;;;;5052477;28;1016;-73
2022/05/24 11:44:50;;;;;;;;;;;;;;;;;;5052211;28;1138;-74
2022/05/24 11:47:32;;;;;;;;;;;;;;;;;;5052009;28;1309;-73
2022/05/24 11:50:00;;;;;;;;;;;;;;;;;;5050201;28;1135;-74
2022/05/24 11:52:44;;;;;;;;;;;;;;;;;;5052308;28;844;-74
2022/05/24 11:55:11;;;;;;;;;;;;;;;;;;5052220;28;1075;-74
2022/05/24 11:57:40;;;;;;;;;;;;;;;;;;5051943;28;1395;-74
2022/05/24 12:00:06;;;;;;;;;;;;;;;;;;5052107;28;1923;-74
2022/05/24 12:08:23;;;;;;;;;;;;;;;;;;5051584;28;1330;-75
2022/05/24 12:10:51;;;;;;;;;;;;;;;;;;5052001;28;707;-75
2022/05/24 12:13:26;;;;;;;;;;;;;;;;;;5051845;28;1091;-72
2022/05/24 12:15:53;;;;;;;;;;;;;;;;;;5051957;28;1286;-74
2022/05/24 12:18:20;;;;;;;;;;;;;;;;;;5051439;28;1091;-73
2022/05/24 12:20:56;;;;;;;;;;;;;;;;;;5050937;28;1977;-74
2022/05/24 12:23:33;;;;;;;;;;;;;;;;;;5050008;28;842;-74
2022/05/24 12:26:01;;;;;;;;;;;;;;;;;;5051536;28;1297;-75
2022/05/24 12:28:28;;;;;;;;;;;;;;;;;;5051302;28;1079;-71
2022/05/24 12:30:54;;;;;;;;;;;;;;;;;;5057967;28;1514;-74
2022/05/24 12:33:28;;;;;;;;;;;;;;;;;;5071113;28;1079;-75
2022/05/24 12:35:59;;;;;;;;;;;;;;;;;;5071236;28;1388;-71
2022/05/24 12:38:26;;;;;;;;;;;;;;;;;;5070900;28;1091;-75
2022/05/24 12:41:05;;;;;;;;;;;;;;;;;;5070930;28;1975;-74
2022/05/24 12:43:31;;;;;;;;;;;;;;;;;;5070999;28;774;-74
2022/05/24 12:46:00;;;;;;;;;;;;;;;;;;5071100;28;1288;-73
2022/05/24 12:48:32;;;;;;;;;;;;;;;;;;5070803;28;794;-74
2022/05/24 12:51:00;;;;;;;;;;;;;;;;;;5071215;28;838;-74
2022/05/24 12:53:26;;;;;;;;;;;;;;;;;;5070974;28;1412;-73
2022/05/24 12:55:59;;;;;;;;;;;;;;;;;;5071064;28;1313;-72
2022/05/24 12:58:29;;;;;;;;;;;;;;;;;;5070967;28;1075;-74
2022/05/24 13:01:08;;;;;;;;;;;;;;;;;;5070846;28;1910;-73
2022/05/24 13:03:34;;;;;;;;;;;;;;;;;;5070823;28;790;-74
2022/05/24 13:06:21;;;;;;;;;;;;;;;;;;5069363;28;1333;-74
2022/05/24 13:08:48;;;;;;;;;;;;;;;;;;5069751;28;905;-74
2022/05/24 13:11:14;;;;;;;;;;;;;;;;;;5070916;28;1071;-74
2022/05/24 13:13:41;;;;;;;;;;;;;;;;;;5070862;28;1092;-74
2022/05/24 13:16:07;;;;;;;;;;;;;;;;;;5070616;28;1373;-75
2022/05/24 13:18:34;;;;;;;;;;;;;;;;;;5070399;28;794;-72
2022/05/24 13:21:01;;;;;;;;;;;;;;;;;;5070869;28;1914;-74
2022/05/24 13:23:31;;;;;;;;;;;;;;;;;;5070645;28;1071;-75
2022/05/24 13:25:57;;;;;;;;;;;;;;;;;;5070858;28;1313;-74
2022/05/24 13:28:48;;;;;;;;;;;;;;;;;;5070515;28;1063;-74
2022/05/24 13:34:00;;;;;;;;;;;;;;;;;;5074763;28;1067;-74
2022/05/24 13:36:29;;;;;;;;;;;;;;;;;;5074824;28;1422;-74
2022/05/24 13:39:08;;;;;;;;;;;;;;;;;;5074597;28;862;-74
2022/05/24 13:41:37;;;;;;;;;;;;;;;;;;5074607;28;1967;-74
2022/05/24 13:44:21;;;;;;;;;;;;;;;;;;5074556;28;841;-74
2022/05/24 13:46:49;;;;;;;;;;;;;;;;;;5074396;28;1371;-74
2022/05/24 13:49:25;;;;;;;;;;;;;;;;;;5074477;28;1072;-74
2022/05/24 13:51:51;;;;;;;;;;;;;;;;;;5074625;28;1052;-72
2022/05/24 13:54:32;;;;;;;;;;;;;;;;;;5074385;28;1147;-74
2022/05/24 13:56:58;;;;;;;;;;;;;;;;;;5073988;28;1395;-73
2022/05/24 13:59:25;;;;;;;;;;;;;;;;;;5074082;28;790;-74
2022/05/24 14:01:52;;;;;;;;;;;;;;;;;;5074296;28;1910;-74
2022/05/24 14:04:19;;;;;;;;;;;;;;;;;;5074238;28;1112;-74
2022/05/24 14:06:47;;;;;;;;;;;;;;;;;;5073997;28;1321;-74
2022/05/24 14:09:13;;;;;;;;;;;;;;;;;;5074139;28;1008;-75
2022/05/24 14:11:48;;;;;;;;;;;;;;;;;;5073038;28;1221;-73
2022/05/24 14:14:14;;;;;;;;;;;;;;;;;;5073811;28;1071;-75
2022/05/24 14:16:41;;;;;;;;;;;;;;;;;;5073425;28;1314;-73
2022/05/24 14:19:07;;;;;;;;;;;;;;;;;;5072816;28;1087;-73
2022/05/24 14:21:34;;;;;;;;;;;;;;;;;;5073719;28;1918;-74
2022/05/24 14:24:00;;;;;;;;;;;;;;;;;;5070606;28;1552;-74
2022/05/24 14:26:26;;;;;;;;;;;;;;;;;;5073362;28;1323;-75
2022/05/24 14:28:54;;;;;;;;;;;;;;;;;;5072566;28;1143;-75
2022/05/24 14:31:21;;;;;;;;;;;;;;;;;;5073394;28;1103;-74
2022/05/24 14:33:47;;;;;;;;;;;;;;;;;;5073653;28;877;-75
2022/05/24 14:36:14;;;;;;;;;;;;;;;;;;5073309;28;1328;-73
2022/05/24 14:38:41;;;;;;;;;;;;;;;;;;5073923;28;691;-73
2022/05/24 14:41:17;;;;;;;;;;;;;;;;;;5073496;28;1907;-73
2022/05/24 14:43:44;;;;;;;;;;;;;;;;;;5072595;28;1024;-73
2022/05/24 14:46:11;;;;;;;;;;;;;;;;;;5073274;28;1420;-74
2022/05/24 14:48:38;;;;;;;;;;;;;;;;;;5073292;28;1020;-73
2022/05/24 14:51:04;;;;;;;;;;;;;;;;;;5073350;28;843;-73
2022/05/24 14:53:32;;;;;;;;;;;;;;;;;;5073083;28;1076;-73
2022/05/24 14:55:58;;;;;;;;;;;;;;;;;;5073254;28;1399;-73
2022/05/24 14:58:25;;;;;;;;;;;;;;;;;;5062135;22;3559;-71
2022/05/24 15:00:51;;;;;;;;;;;;;;;;;;5013094;28;1918;-70
2022/05/24 15:03:18;;;;;;;;;;;;;;;;;;5013385;28;1139;-71
2022/05/24 15:05:44;;;;;;;;;;;;;;;;;;5013443;28;1060;-70
2022/05/24 15:16:23;;;;;;;;;;;;;;;;;;5012895;28;795;-70
2022/05/24 15:18:50;;;;;;;;;;;;;;;;;;5012814;28;1286;-70
2022/05/24 15:21:17;;;;;;;;;;;;;;;;;;5013056;28;1982;-72
2022/05/24 15:23:43;;;;;;;;;;;;;;;;;;5013099;28;1080;-71
2022/05/24 15:26:10;;;;;;;;;;;;;;;;;;5013167;28;1120;-70
2022/05/24 15:28:37;;;;;;;;;;;;;;;;;;5011545;28;1334;-70
2022/05/24 15:31:03;;;;;;;;;;;;;;;;;;5014499;28;1072;-72
2022/05/24 15:33:30;;;;;;;;;;;;;;;;;;5015977;28;867;-72
2022/05/24 15:35:57;;;;;;;;;;;;;;;;;;5016866;28;1166;-71
2022/05/24 15:38:23;;;;;;;;;;;;;;;;;;5012470;28;1410;-71
2022/05/24 15:40:50;;;;;;;;;;;;;;;;;;5012729;28;783;-71
2022/05/24 15:43:16;;;;;;;;;;;;;;;;;;5012399;28;890;-71
2022/05/24 15:45:43;;;;;;;;;;;;;;;;;;5012504;28;1119;-72
2022/05/24 15:48:09;;;;;;;;;;;;;;;;;;5012518;28;1299;-72
2022/05/24 15:50:35;;;;;;;;;;;;;;;;;;5012592;28;1124;-71
2022/05/24 15:53:03;;;;;;;;;;;;;;;;;;5012562;28;1076;-69
2022/05/24 15:55:29;;;;;;;;;;;;;;;;;;5011396;28;970;-71
2022/05/24 15:57:56;;;;;;;;;;;;;;;;;;5011708;28;1419;-71
2022/05/24 16:00:22;;;;;;;;;;;;;;;;;;5012326;28;1096;-71
2022/05/24 16:02:49;;;;;;;;;;;;;;;;;;5012264;28;1914;-71
2022/05/24 16:10:44;;;;;;;;;;;;;;;;;;5012127;28;993;-72
2022/05/24 16:13:13;;;;;;;;;;;;;;;;;;5012236;28;1115;-72
2022/05/24 16:15:39;;;;;;;;;;;;;;;;;;5010543;28;1219;-71
2022/05/24 16:18:06;;;;;;;;;;;;;;;;;;5011985;28;1334;-70
2022/05/24 16:20:35;;;;;;;;;;;;;;;;;;5010857;28;1182;-72
2022/05/24 16:23:01;;;;;;;;;;;;;;;;;;5011614;28;1972;-72
2022/05/24 16:25:27;;;;;;;;;;;;;;;;;;5012126;28;783;-71
2022/05/24 16:27:55;;;;;;;;;;;;;;;;;;5010398;28;1347;-72
2022/05/24 16:30:21;;;;;;;;;;;;;;;;;;5011861;28;1076;-73
2022/05/24 16:32:47;;;;;;;;;;;;;;;;;;5011610;28;1123;-72
2022/05/24 16:35:13;;;;;;;;;;;;;;;;;;5012154;28;826;-73
2022/05/24 16:37:40;;;;;;;;;;;;;;;;;;5011524;28;1405;-71
2022/05/24 16:40:06;;;;;;;;;;;;;;;;;;5011660;28;1131;-72
2022/05/24 16:42:33;;;;;;;;;;;;;;;;;;5011561;28;1914;-72
2022/05/24 16:45:00;;;;;;;;;;;;;;;;;;5011578;28;1128;-72
2022/05/24 16:47:26;;;;;;;;;;;;;;;;;;5011487;28;1820;-71
2022/05/24 16:49:53;;;;;;;;;;;;;;;;;;5011571;28;1068;-70
2022/05/24 16:52:19;;;;;;;;;;;;;;;;;;5011480;28;1056;-73
2022/05/24 17:00:16;;;;;;;;;;;;;;;;;;5011406;28;997;-73
2022/05/24 17:02:43;;;;;;;;;;;;;;;;;;5011271;28;1977;-72
2022/05/24 17:05:09;;;;;;;;;;;;;;;;;;5011467;28;1112;-72
2022/05/24 17:07:36;;;;;;;;;;;;;;;;;;5010703;28;1405;-72
2022/05/24 17:10:02;;;;;;;;;;;;;;;;;;5011309;28;1120;-72
2022/05/24 17:12:30;;;;;;;;;;;;;;;;;;5011129;28;1088;-72
2022/05/24 17:14:56;;;;;;;;;;;;;;;;;;5011253;28;1108;-72
2022/05/24 17:17:24;;;;;;;;;;;;;;;;;;5011094;28;1329;-71
2022/05/24 17:19:51;;;;;;;;;;;;;;;;;;5011078;28;1097;-72
2022/05/24 17:22:17;;;;;;;;;;;;;;;;;;5006756;28;1906;-71
2022/05/24 17:24:43;;;;;;;;;;;;;;;;;;5010631;28;2059;-72
2022/05/24 17:27:09;;;;;;;;;;;;;;;;;;5010685;28;1158;-72
2022/05/24 17:29:35;;;;;;;;;;;;;;;;;;5010588;28;1383;-71
2022/05/24 17:32:03;;;;;;;;;;;;;;;;;;5011850;28;1425;-72
2022/05/24 17:34:30;;;;;;;;;;;;;;;;;;5011184;28;890;-72
2022/05/24 17:36:57;;;;;;;;;;;;;;;;;;5009507;28;1239;-72
2022/05/24 17:39:23;;;;;;;;;;;;;;;;;;5010903;28;1392;-72
2022/05/24 17:41:49;;;;;;;;;;;;;;;;;;5016384;28;1922;-73
2022/05/24 17:44:16;;;;;;;;;;;;;;;;;;5030630;28;1023;-73
2022/05/24 17:46:42;;;;;;;;;;;;;;;;;;5030228;28;1123;-73
2022/05/24 17:49:09;;;;;;;;;;;;;;;;;;5030337;28;1376;-72
2022/05/24 17:51:37;;;;;;;;;;;;;;;;;;5030902;28;1096;-72
2022/05/24 17:54:03;;;;;;;;;;;;;;;;;;5030692;28;1103;-72
2022/05/24 17:56:29;;;;;;;;;;;;;;;;;;5030154;28;1413;-72
2022/05/24 17:58:55;;;;;;;;;;;;;;;;;;5029321;28;1453;-72
2022/05/24 18:01:22;;;;;;;;;;;;;;;;;;5030699;28;1038;-70
2022/05/24 18:03:48;;;;;;;;;;;;;;;;;;5030169;28;1985;-71
2022/05/24 18:06:14;;;;;;;;;;;;;;;;;;5030427;28;901;-71
2022/05/24 18:08:41;;;;;;;;;;;;;;;;;;5030366;28;1314;-72
2022/05/24 18:11:08;;;;;;;;;;;;;;;;;;5030523;28;1527;-72
2022/05/24 18:13:34;;;;;;;;;;;;;;;;;;5029394;28;1452;-72
2022/05/24 18:16:00;;;;;;;;;;;;;;;;;;5009699;28;1460;-72